Time;durP1;ratioP1;P1;durP2;ratioP2;P2;SDS_P1;SDS_P2;PMS_P1;PMS_P2;Temp;Humidity;BMP_temperature;BMP_pressure;BME280_temperature;BME280_humidity;BME280_pressure;Samples;Min_cycle;Max_cycle;Signal;HPM_P1;HPM_P2
2023/06/30 00:00:29;;;;;;;;;;;;;;;13.44;93.50;95340.34;5094087;28;1910;-59
2023/06/30 00:02:55;;;;;;;;;;;;;;;13.46;93.74;95339.16;5093913;28;1206;-59
2023/06/30 00:05:23;;;;;;;;;;;;;;;13.31;94.13;95334.69;5093880;28;1071;-59
2023/06/30 00:07:48;;;;;;;;;;;;;;;13.05;95.06;95333.91;5093779;28;1029;-59
2023/06/30 00:10:14;;;;;;;;;;;;;;;13.12;95.58;95334.06;5094040;28;974;-59
2023/06/30 00:12:40;;;;;;;;;;;;;;;13.26;94.79;95327.97;5093757;28;1088;-59
2023/06/30 00:15:07;;;;;;;;;;;;;;;13.34;94.69;95335.19;5093776;28;1134;-59
2023/06/30 00:17:33;;;;;;;;;;;;;;;13.44;94.10;95338.50;5093557;28;1044;-59
2023/06/30 00:19:59;;;;;;;;;;;;;;;13.43;93.34;95344.03;5092697;28;1906;-59
2023/06/30 00:22:25;;;;;;;;;;;;;;;13.42;93.27;95342.38;5093446;28;996;-59
2023/06/30 00:24:55;;;;;;;;;;;;;;;13.46;93.36;95344.53;5093875;28;1042;-59
2023/06/30 00:27:22;;;;;;;;;;;;;;;13.47;92.96;95337.34;5093468;28;1032;-59
2023/06/30 00:29:48;;;;;;;;;;;;;;;13.41;93.84;95346.06;5093497;28;1132;-59
2023/06/30 00:32:14;;;;;;;;;;;;;;;13.30;93.10;95344.63;5093510;28;1260;-59
2023/06/30 00:34:40;;;;;;;;;;;;;;;13.13;93.05;95341.09;5093729;28;1040;-59
2023/06/30 00:37:06;;;;;;;;;;;;;;;13.18;94.56;95344.09;5093153;28;981;-59
2023/06/30 00:39:32;;;;;;;;;;;;;;;13.23;93.74;95340.91;5093210;28;1906;-59
2023/06/30 00:41:58;;;;;;;;;;;;;;;13.27;93.78;95345.75;5093709;28;1031;-59
2023/06/30 00:44:24;;;;;;;;;;;;;;;13.07;93.21;95349.81;5093499;28;949;-59
2023/06/30 00:46:50;;;;;;;;;;;;;;;12.87;93.89;95354.75;5093648;28;1048;-59
2023/06/30 00:49:16;;;;;;;;;;;;;;;12.94;94.47;95354.88;5090920;28;1725;-59
2023/06/30 00:51:42;;;;;;;;;;;;;;;13.01;94.94;95351.38;5093168;28;1086;-59
2023/06/30 00:54:08;;;;;;;;;;;;;;;13.09;94.88;95356.72;5092304;28;1023;-59
2023/06/30 00:56:34;;;;;;;;;;;;;;;13.18;93.75;95348.63;5093243;28;1196;-59
2023/06/30 00:59:00;;;;;;;;;;;;;;;13.14;93.69;95350.00;5093367;28;1043;-59
2023/06/30 01:01:46;;;;;;;;;;;;;;;13.06;93.11;95348.16;5093129;28;1914;-59
2023/06/30 01:04:27;;;;;;;;;;;;;;;12.96;93.78;95348.38;5093013;28;953;-59
2023/06/30 01:06:56;;;;;;;;;;;;;;;12.95;94.22;95345.84;5093356;28;1010;-59
2023/06/30 01:09:27;;;;;;;;;;;;;;;12.84;92.78;95339.84;5093203;28;976;-59
2023/06/30 01:11:53;;;;;;;;;;;;;;;12.93;93.21;95340.63;5093237;28;1063;-59
2023/06/30 01:14:20;;;;;;;;;;;;;;;12.88;92.76;95340.31;5093346;28;1051;-59
2023/06/30 01:16:48;;;;;;;;;;;;;;;12.72;93.50;95337.66;5093316;28;1063;-59
2023/06/30 01:19:21;;;;;;;;;;;;;;;12.73;94.81;95348.25;5093146;28;1032;-59
2023/06/30 01:21:47;;;;;;;;;;;;;;;12.88;94.07;95334.94;5093130;28;1971;-59
2023/06/30 01:24:16;;;;;;;;;;;;;;;12.94;93.20;95345.00;5092906;28;1025;-59
2023/06/30 01:26:42;;;;;;;;;;;;;;;12.92;93.38;95346.19;5093052;28;1095;-59
2023/06/30 01:29:10;;;;;;;;;;;;;;;12.88;93.89;95346.53;5092879;28;1017;-59
2023/06/30 01:31:36;;;;;;;;;;;;;;;12.91;93.60;95342.66;5092024;28;1059;-59
2023/06/30 01:34:02;;;;;;;;;;;;;;;12.93;93.46;95337.97;5092022;28;1032;-59
2023/06/30 01:36:28;;;;;;;;;;;;;;;12.94;93.28;95342.31;5092902;28;968;-59
2023/06/30 01:38:54;;;;;;;;;;;;;;;12.75;91.87;95340.00;5092909;28;1029;-59
2023/06/30 01:41:20;;;;;;;;;;;;;;;12.58;93.29;95344.56;5092985;28;1906;-59
2023/06/30 01:43:47;;;;;;;;;;;;;;;12.66;93.83;95331.97;5092816;28;1095;-59
2023/06/30 01:46:13;;;;;;;;;;;;;;;12.62;93.67;95341.38;5092793;28;1045;-59
2023/06/30 01:48:40;;;;;;;;;;;;;;;12.61;93.17;95331.63;5091931;28;1535;-59
2023/06/30 01:51:07;;;;;;;;;;;;;;;12.62;93.38;95329.81;5096322;28;1098;-59
2023/06/30 01:53:33;;;;;;;;;;;;;;;12.56;92.36;95330.47;5096404;28;981;-59
2023/06/30 01:55:59;;;;;;;;;;;;;;;12.46;93.67;95331.50;5096695;28;953;-59
2023/06/30 01:58:25;;;;;;;;;;;;;;;12.23;93.19;95325.94;5096277;28;1720;-59
2023/06/30 02:00:51;;;;;;;;;;;;;;;11.98;94.32;95326.94;5096527;28;1918;-59
2023/06/30 02:03:17;;;;;;;;;;;;;;;11.83;95.85;95326.72;5096132;28;1033;-59
2023/06/30 02:05:43;;;;;;;;;;;;;;;11.88;96.03;95332.41;5096376;28;968;-59
2023/06/30 02:08:09;;;;;;;;;;;;;;;12.03;95.16;95319.25;5096047;28;1028;-59
2023/06/30 02:10:35;;;;;;;;;;;;;;;12.10;94.40;95323.78;5096161;28;972;-59
2023/06/30 02:13:01;;;;;;;;;;;;;;;12.18;95.14;95328.31;5096181;28;1051;-59
2023/06/30 02:15:27;;;;;;;;;;;;;;;12.17;94.80;95325.78;5096199;28;1035;-59
2023/06/30 02:17:54;;;;;;;;;;;;;;;12.23;94.06;95323.25;5096145;28;1036;-59
2023/06/30 02:20:20;;;;;;;;;;;;;;;12.26;94.37;95330.97;5095898;28;1993;-59
2023/06/30 02:22:45;;;;;;;;;;;;;;;12.27;93.49;95324.63;5095917;28;1019;-59
2023/06/30 02:25:11;;;;;;;;;;;;;;;12.08;93.10;95322.25;5095598;28;1096;-58
2023/06/30 02:27:37;;;;;;;;;;;;;;;12.02;94.33;95322.91;5095764;28;1056;-59
2023/06/30 02:30:05;;;;;;;;;;;;;;;12.24;94.49;95321.44;5095967;28;1268;-59
2023/06/30 02:32:32;;;;;;;;;;;;;;;12.32;93.99;95324.13;5095617;28;1107;-60
2023/06/30 02:34:58;;;;;;;;;;;;;;;12.27;94.05;95318.41;5095893;28;1023;-59
2023/06/30 02:37:25;;;;;;;;;;;;;;;12.28;93.65;95320.94;5095753;28;1035;-60
2023/06/30 02:39:51;;;;;;;;;;;;;;;12.35;93.51;95317.56;5095492;28;1964;-59
2023/06/30 02:42:17;;;;;;;;;;;;;;;12.29;93.90;95324.44;5095488;28;996;-60
2023/06/30 02:44:43;;;;;;;;;;;;;;;12.25;94.20;95323.94;5095666;28;1070;-60
2023/06/30 02:47:09;;;;;;;;;;;;;;;12.17;94.83;95318.56;5095396;28;1067;-59
2023/06/30 02:49:35;;;;;;;;;;;;;;;12.21;93.65;95327.13;5093074;28;1829;-60
2023/06/30 02:52:01;;;;;;;;;;;;;;;12.16;94.33;95324.97;5094451;28;1035;-60
2023/06/30 02:54:27;;;;;;;;;;;;;;;12.18;94.98;95320.25;5095209;28;1041;-59
2023/06/30 02:56:53;;;;;;;;;;;;;;;12.01;93.61;95323.91;5095197;28;1015;-59
2023/06/30 02:59:19;;;;;;;;;;;;;;;11.94;93.80;95329.09;5095040;28;1032;-59
2023/06/30 03:01:45;;;;;;;;;;;;;;;11.70;93.80;95325.34;5095430;28;1883;-60
2023/06/30 03:04:11;;;;;;;;;;;;;;;11.44;95.29;95321.91;5094988;28;996;-60
2023/06/30 03:06:37;;;;;;;;;;;;;;;11.39;96.13;95333.13;5095224;28;1016;-60
2023/06/30 03:09:03;;;;;;;;;;;;;;;11.58;95.95;95321.28;5094822;28;1088;-60
2023/06/30 03:11:29;;;;;;;;;;;;;;;11.77;94.12;95322.00;5094927;28;1028;-60
2023/06/30 03:13:55;;;;;;;;;;;;;;;12.02;93.12;95320.25;5094825;28;1112;-59
2023/06/30 03:16:21;;;;;;;;;;;;;;;11.74;93.15;95325.84;5095011;28;1017;-59
2023/06/30 03:31:35;;;;;;;;;;;;;;;11.90;95.92;95330.44;5070764;28;1187;-60
2023/06/30 03:34:01;;;;;;;;;;;;;;;12.09;94.77;95327.44;5070399;28;1040;-59
2023/06/30 03:36:27;;;;;;;;;;;;;;;12.21;95.56;95336.00;5070309;28;1651;-58
2023/06/30 03:38:53;;;;;;;;;;;;;;;12.17;94.98;95326.63;5070750;28;985;-59
2023/06/30 03:41:19;;;;;;;;;;;;;;;12.02;95.75;95337.16;5070571;28;1036;-59
2023/06/30 03:43:45;;;;;;;;;;;;;;;12.05;95.84;95333.31;5070338;28;1088;-59
2023/06/30 03:46:12;;;;;;;;;;;;;;;12.04;96.25;95337.00;5069158;28;948;-59
2023/06/30 03:48:38;;;;;;;;;;;;;;;12.13;96.11;95336.00;5070217;28;1027;-59
2023/06/30 03:51:04;;;;;;;;;;;;;;;12.36;95.40;95332.66;5070014;28;1909;-59
2023/06/30 03:53:30;;;;;;;;;;;;;;;12.50;96.04;95338.19;5070234;28;1417;-60
2023/06/30 03:55:57;;;;;;;;;;;;;;;12.81;95.27;95333.97;5070095;28;1252;-59
2023/06/30 03:58:23;;;;;;;;;;;;;;;13.06;94.74;95332.88;5070275;28;1044;-60
2023/06/30 04:00:49;;;;;;;;;;;;;;;13.20;94.31;95335.88;5070292;28;1040;-60
2023/06/30 04:03:15;;;;;;;;;;;;;;;13.35;93.91;95336.84;5070092;28;1016;-59
2023/06/30 04:05:41;;;;;;;;;;;;;;;13.30;94.40;95336.56;5069909;28;1112;-60
2023/06/30 04:08:07;;;;;;;;;;;;;;;13.37;95.33;95340.19;5070179;28;1012;-60
2023/06/30 04:10:33;;;;;;;;;;;;;;;13.63;93.27;95344.47;5069612;28;1995;-59
2023/06/30 04:12:59;;;;;;;;;;;;;;;13.85;91.21;95337.47;5068721;28;1059;-59
2023/06/30 04:15:25;;;;;;;;;;;;;;;13.88;90.67;95341.66;5069700;28;993;-59
2023/06/30 04:17:51;;;;;;;;;;;;;;;13.78;92.54;95337.34;5069537;28;1092;-59
2023/06/30 04:20:17;;;;;;;;;;;;;;;13.83;91.22;95345.72;5069802;28;964;-60
2023/06/30 04:22:43;;;;;;;;;;;;;;;14.19;89.56;95347.00;5069774;28;1016;-59
2023/06/30 04:25:11;;;;;;;;;;;;;;;14.44;88.80;95342.28;5069774;28;992;-59
2023/06/30 04:27:38;;;;;;;;;;;;;;;14.67;86.98;95346.84;5069268;28;1425;-60
2023/06/30 04:30:05;;;;;;;;;;;;;;;14.76;85.51;95351.09;5069249;28;1910;-60
2023/06/30 04:32:31;;;;;;;;;;;;;;;14.75;85.24;95350.28;5056322;28;969;-59
2023/06/30 04:35:00;;;;;;;;;;;;;;;14.82;85.74;95348.53;5054883;28;1043;-59
2023/06/30 04:37:29;;;;;;;;;;;;;;;14.74;84.51;95347.75;5056208;28;1044;-59
2023/06/30 04:39:58;;;;;;;;;;;;;;;14.83;86.03;95349.38;5056231;28;1016;-62
2023/06/30 04:42:27;;;;;;;;;;;;;;;14.96;86.69;95352.28;5055955;28;1093;-61
2023/06/30 04:44:53;;;;;;;;;;;;;;;15.23;84.45;95348.13;5055020;28;985;-60
2023/06/30 04:47:19;;;;;;;;;;;;;;;15.21;83.18;95334.03;5056021;28;1227;-60
2023/06/30 04:49:45;;;;;;;;;;;;;;;15.15;86.58;95333.91;5055699;28;1906;-60
2023/06/30 04:52:13;;;;;;;;;;;;;;;15.45;84.25;95337.44;5055908;28;961;-60
2023/06/30 04:54:39;;;;;;;;;;;;;;;15.52;84.91;95332.16;5055691;28;1108;-60
2023/06/30 04:57:05;;;;;;;;;;;;;;;15.64;83.78;95341.41;5056004;28;981;-60
2023/06/30 04:59:31;;;;;;;;;;;;;;;15.68;84.24;95336.50;5055868;28;1051;-60
2023/06/30 05:01:57;;;;;;;;;;;;;;;15.78;82.90;95334.34;5055760;28;1009;-60
2023/06/30 05:04:23;;;;;;;;;;;;;;;15.86;83.63;95330.72;5055710;28;973;-60
2023/06/30 05:06:49;;;;;;;;;;;;;;;15.85;82.99;95332.59;5055513;28;1104;-60
2023/06/30 05:09:15;;;;;;;;;;;;;;;15.90;82.61;95332.03;5055561;28;1926;-60
2023/06/30 05:11:41;;;;;;;;;;;;;;;16.00;83.37;95343.34;5055541;28;973;-60
2023/06/30 05:14:07;;;;;;;;;;;;;;;16.01;80.72;95342.28;5055313;28;1046;-60
2023/06/30 05:16:33;;;;;;;;;;;;;;;16.24;82.41;95331.38;5055448;28;1031;-60
2023/06/30 05:18:59;;;;;;;;;;;;;;;16.30;79.63;95343.25;5054260;28;2921;-60
2023/06/30 05:21:25;;;;;;;;;;;;;;;16.59;81.82;95344.97;5033996;28;2885;-60
2023/06/30 05:23:51;;;;;;;;;;;;;;;16.64;79.72;95353.34;5035354;28;993;-60
2023/06/30 05:26:17;;;;;;;;;;;;;;;16.69;80.09;95350.88;5035118;28;1044;-60
2023/06/30 05:28:43;;;;;;;;;;;;;;;16.69;79.59;95345.47;5045149;28;1620;-60
2023/06/30 05:31:09;;;;;;;;;;;;;;;16.73;80.76;95357.56;5054793;28;1910;-60
2023/06/30 05:33:35;;;;;;;;;;;;;;;16.84;77.54;95358.94;5055080;28;1041;-60
2023/06/30 05:36:01;;;;;;;;;;;;;;;17.17;75.41;95353.78;5055112;28;984;-60
2023/06/30 05:38:28;;;;;;;;;;;;;;;17.44;76.77;95353.13;5054967;28;1300;-60
2023/06/30 05:40:54;;;;;;;;;;;;;;;17.51;76.63;95354.84;5054911;28;1032;-60
2023/06/30 05:43:20;;;;;;;;;;;;;;;17.26;76.84;95362.56;5052615;28;961;-60
2023/06/30 05:45:46;;;;;;;;;;;;;;;17.43;77.74;95363.09;5054669;28;922;-60
2023/06/30 05:48:12;;;;;;;;;;;;;;;17.72;78.35;95353.91;5054453;28;1049;-60
2023/06/30 05:50:38;;;;;;;;;;;;;;;17.78;78.74;95357.69;5054876;28;1988;-61
2023/06/30 05:53:04;;;;;;;;;;;;;;;17.90;78.14;95355.25;5054537;28;1100;-60
2023/06/30 05:55:30;;;;;;;;;;;;;;;18.05;78.31;95352.41;5054421;28;1947;-60
2023/06/30 05:57:56;;;;;;;;;;;;;;;18.42;76.53;95348.34;5053279;28;1025;-60
2023/06/30 06:00:24;;;;;;;;;;;;;;;18.49;77.35;95343.78;5045757;28;2940;-60
2023/06/30 06:02:50;;;;;;;;;;;;;;;18.61;76.64;95351.28;5034408;28;972;-60
2023/06/30 06:05:17;;;;;;;;;;;;;;;18.50;77.71;95353.56;5033365;28;1258;-61
2023/06/30 06:07:43;;;;;;;;;;;;;;;18.62;77.36;95352.97;5034270;28;1291;-61
2023/06/30 06:10:09;;;;;;;;;;;;;;;18.78;77.22;95351.72;5032977;28;1899;-61
2023/06/30 06:12:36;;;;;;;;;;;;;;;19.03;76.04;95354.69;5034222;28;1188;-61
2023/06/30 06:15:02;;;;;;;;;;;;;;;19.01;71.55;95356.75;5034389;28;957;-60
2023/06/30 06:17:28;;;;;;;;;;;;;;;19.17;75.07;95348.22;5034006;28;966;-61
2023/06/30 06:19:55;;;;;;;;;;;;;;;19.13;73.75;95349.69;5034130;28;1449;-61
2023/06/30 06:22:21;;;;;;;;;;;;;;;19.37;76.26;95339.22;5032808;28;1124;-59
2023/06/30 06:24:47;;;;;;;;;;;;;;;19.50;74.60;95344.59;5034251;28;961;-59
2023/06/30 06:27:13;;;;;;;;;;;;;;;19.91;74.20;95346.19;5034006;28;1044;-60
2023/06/30 06:29:39;;;;;;;;;;;;;;;20.01;74.67;95337.59;5051481;28;1901;-59
2023/06/30 06:32:06;;;;;;;;;;;;;;;19.91;71.78;95335.34;5053747;28;1050;-60
2023/06/30 06:34:33;;;;;;;;;;;;;;;19.98;71.85;95330.72;5053637;28;1471;-60
2023/06/30 06:37:00;;;;;;;;;;;;;;;20.13;72.34;95329.59;5053644;28;1105;-60
2023/06/30 06:39:26;;;;;;;;;;;;;;;20.21;72.04;95324.75;5053736;28;974;-59
2023/06/30 06:41:52;;;;;;;;;;;;;;;20.23;70.71;95322.66;5053684;28;1044;-59
2023/06/30 06:44:18;;;;;;;;;;;;;;;20.11;69.61;95318.13;5053391;28;1077;-59
2023/06/30 06:46:45;;;;;;;;;;;;;;;20.10;72.69;95322.72;5053803;28;1024;-59
2023/06/30 06:49:11;;;;;;;;;;;;;;;20.44;72.03;95316.06;5053294;28;1902;-59
2023/06/30 06:51:37;;;;;;;;;;;;;;;20.80;72.98;95320.03;5053539;28;1115;-61
2023/06/30 06:54:03;;;;;;;;;;;;;;;20.86;71.06;95321.84;5053534;28;961;-61
2023/06/30 06:56:29;;;;;;;;;;;;;;;20.89;70.72;95323.31;5052151;28;1045;-59
2023/06/30 06:58:55;;;;;;;;;;;;;;;20.84;69.84;95321.25;5053563;28;1024;-59
2023/06/30 07:01:21;;;;;;;;;;;;;;;20.78;68.65;95315.88;5053108;28;1042;-59
2023/06/30 07:03:47;;;;;;;;;;;;;;;20.87;71.08;95311.84;5053469;28;980;-59
2023/06/30 07:06:13;;;;;;;;;;;;;;;20.98;66.77;95321.13;5053082;28;1051;-59
2023/06/30 07:08:39;;;;;;;;;;;;;;;21.06;68.19;95316.25;5053532;28;957;-59
2023/06/30 07:11:06;;;;;;;;;;;;;;;21.17;68.90;95314.72;5051967;28;1918;-60
2023/06/30 07:13:32;;;;;;;;;;;;;;;21.16;69.81;95304.06;5053006;28;1024;-59
2023/06/30 07:15:59;;;;;;;;;;;;;;;21.48;70.48;95314.88;5053278;28;1020;-60
2023/06/30 07:18:25;;;;;;;;;;;;;;;21.71;68.76;95308.75;5052230;28;1073;-59
2023/06/30 07:20:52;;;;;;;;;;;;;;;21.50;69.32;95310.84;5053395;28;1030;-59
2023/06/30 07:23:18;;;;;;;;;;;;;;;21.52;68.95;95303.28;5052917;28;1092;-59
2023/06/30 07:25:44;;;;;;;;;;;;;;;21.71;67.96;95306.84;5053265;28;977;-59
2023/06/30 07:28:10;;;;;;;;;;;;;;;21.85;63.35;95318.41;5052751;28;1353;-59
2023/06/30 07:30:36;;;;;;;;;;;;;;;21.93;65.40;95304.50;5052663;28;1992;-60
2023/06/30 07:33:03;;;;;;;;;;;;;;;22.10;64.28;95309.31;5052972;28;1033;-60
2023/06/30 07:35:29;;;;;;;;;;;;;;;22.21;65.39;95294.91;5052844;28;1052;-59
2023/06/30 07:37:55;;;;;;;;;;;;;;;22.37;65.08;95305.22;5053177;28;1044;-59
2023/06/30 07:40:21;;;;;;;;;;;;;;;22.24;61.14;95310.81;5051738;28;1036;-60
2023/06/30 07:42:47;;;;;;;;;;;;;;;22.32;63.35;95310.50;5052877;28;1016;-60
2023/06/30 07:45:14;;;;;;;;;;;;;;;22.32;62.95;95307.78;5052827;28;1041;-59
2023/06/30 07:47:41;;;;;;;;;;;;;;;22.50;64.09;95306.06;5052795;28;1037;-59
2023/06/30 07:50:10;;;;;;;;;;;;;;;22.54;62.60;95304.56;5052971;28;1967;-59
2023/06/30 07:52:37;;;;;;;;;;;;;;;22.47;63.77;95306.53;5052740;28;1041;-59
2023/06/30 07:55:04;;;;;;;;;;;;;;;22.52;63.70;95302.06;5051596;28;1115;-59
2023/06/30 07:57:30;;;;;;;;;;;;;;;22.85;64.92;95302.63;5051407;28;1124;-60
2023/06/30 07:59:56;;;;;;;;;;;;;;;22.89;63.26;95310.06;5052545;28;1049;-58
2023/06/30 08:02:22;;;;;;;;;;;;;;;22.98;62.76;95305.13;5052994;28;1039;-59
2023/06/30 08:04:48;;;;;;;;;;;;;;;22.95;59.73;95308.31;5052867;28;960;-59
2023/06/30 08:07:14;;;;;;;;;;;;;;;23.10;62.71;95305.16;5055281;28;1041;-60
2023/06/30 08:09:40;;;;;;;;;;;;;;;23.24;61.80;95303.03;5056618;28;1987;-59
2023/06/30 08:12:06;;;;;;;;;;;;;;;23.26;60.70;95298.16;5056291;28;1084;-60
2023/06/30 08:14:33;;;;;;;;;;;;;;;23.37;63.12;95300.06;5056337;28;1024;-59
2023/06/30 08:16:59;;;;;;;;;;;;;;;23.18;57.30;95302.06;5056479;28;966;-60
2023/06/30 08:19:25;;;;;;;;;;;;;;;23.21;60.57;95292.59;5056128;28;1215;-59
2023/06/30 08:21:51;;;;;;;;;;;;;;;23.57;59.27;95284.16;5056179;28;1195;-59
2023/06/30 08:24:17;;;;;;;;;;;;;;;23.62;58.76;95280.72;5056056;28;1044;-59
2023/06/30 08:26:43;;;;;;;;;;;;;;;23.56;60.03;95279.78;5056115;28;1084;-59
2023/06/30 08:29:09;;;;;;;;;;;;;;;23.84;60.69;95275.47;5055822;28;1930;-60
2023/06/30 08:31:36;;;;;;;;;;;;;;;23.82;56.73;95277.59;5056316;28;1001;-59
2023/06/30 08:34:02;;;;;;;;;;;;;;;23.88;58.40;95281.28;5056147;28;981;-59
2023/06/30 08:36:28;;;;;;;;;;;;;;;23.70;57.61;95266.69;5055729;28;1092;-59
2023/06/30 08:38:54;;;;;;;;;;;;;;;23.82;61.23;95263.13;5055856;28;1104;-59
2023/06/30 08:41:20;;;;;;;;;;;;;;;23.75;55.19;95271.41;5055741;28;997;-59
2023/06/30 08:43:47;;;;;;;;;;;;;;;24.02;57.55;95265.44;5055535;28;1112;-59
2023/06/30 08:46:16;;;;;;;;;;;;;;;23.97;56.26;95263.44;5055627;28;1049;-59
2023/06/30 08:48:42;;;;;;;;;;;;;;;24.14;55.78;95260.78;5055918;28;1037;-59
2023/06/30 08:51:09;;;;;;;;;;;;;;;24.24;58.19;95255.50;5055822;28;1906;-60
2023/06/30 08:53:35;;;;;;;;;;;;;;;24.39;58.01;95262.31;5055567;28;1046;-60
2023/06/30 08:56:03;;;;;;;;;;;;;;;24.33;57.87;95259.50;5055787;28;985;-59
2023/06/30 08:58:29;;;;;;;;;;;;;;;24.25;57.83;95251.69;5055253;28;1045;-59
2023/06/30 09:00:55;;;;;;;;;;;;;;;24.12;57.80;95250.09;5054561;28;989;-59
2023/06/30 09:03:22;;;;;;;;;;;;;;;24.27;58.35;95240.53;5055597;28;1141;-59
2023/06/30 09:05:52;;;;;;;;;;;;;;;24.36;57.54;95248.09;5054497;28;1027;-59
2023/06/30 09:08:27;;;;;;;;;;;;;;;24.47;55.04;95242.78;5055769;28;1016;-59
2023/06/30 09:10:53;;;;;;;;;;;;;;;24.76;57.23;95243.63;5055234;28;1906;-59
2023/06/30 09:13:23;;;;;;;;;;;;;;;24.85;57.51;95239.41;5055268;28;982;-59
2023/06/30 09:15:50;;;;;;;;;;;;;;;24.81;55.77;95238.22;5055429;28;1048;-59
2023/06/30 09:18:16;;;;;;;;;;;;;;;24.82;54.08;95236.31;5054894;28;1238;-58
2023/06/30 09:20:42;;;;;;;;;;;;;;;24.88;56.96;95230.66;5055218;28;1023;-59
2023/06/30 09:23:08;;;;;;;;;;;;;;;25.02;57.01;95233.88;5055539;28;1032;-59
2023/06/30 09:25:35;;;;;;;;;;;;;;;25.00;58.61;95227.84;5054834;28;1025;-59
2023/06/30 09:28:07;;;;;;;;;;;;;;;24.66;55.58;95227.03;5054758;28;1330;-59
2023/06/30 09:30:33;;;;;;;;;;;;;;;24.74;54.27;95219.25;5053674;28;2312;-59
2023/06/30 09:32:59;;;;;;;;;;;;;;;24.79;54.99;95220.41;5053413;28;2866;-60
2023/06/30 09:35:25;;;;;;;;;;;;;;;24.96;59.29;95210.28;5055000;28;1123;-58
2023/06/30 09:37:53;;;;;;;;;;;;;;;24.94;56.70;95207.78;5054676;28;1100;-59
2023/06/30 09:40:24;;;;;;;;;;;;;;;25.01;56.10;95213.09;5054613;28;1380;-59
2023/06/30 09:42:54;;;;;;;;;;;;;;;24.82;53.67;95200.78;5054980;28;957;-59
2023/06/30 09:45:20;;;;;;;;;;;;;;;24.68;54.94;95208.47;5054759;28;1025;-60
2023/06/30 09:47:52;;;;;;;;;;;;;;;24.81;54.32;95201.84;5054888;28;1052;-59
2023/06/30 09:50:24;;;;;;;;;;;;;;;25.21;55.73;95203.53;5054313;28;1985;-59
2023/06/30 09:52:50;;;;;;;;;;;;;;;25.44;55.23;95203.34;5054394;28;980;-59
2023/06/30 09:55:16;;;;;;;;;;;;;;;25.61;54.69;95195.09;5054541;28;962;-59
2023/06/30 09:57:43;;;;;;;;;;;;;;;25.65;57.59;95190.75;5054364;28;1054;-59
2023/06/30 10:00:13;;;;;;;;;;;;;;;25.68;57.08;95184.75;5054566;28;1023;-59
2023/06/30 10:02:40;;;;;;;;;;;;;;;25.61;55.52;95188.75;5054528;28;1040;-59
2023/06/30 10:05:07;;;;;;;;;;;;;;;25.67;56.95;95193.25;5054185;28;1000;-59
2023/06/30 10:07:33;;;;;;;;;;;;;;;25.79;55.77;95179.41;5054093;28;1033;-60
2023/06/30 10:10:00;;;;;;;;;;;;;;;25.73;54.34;95172.22;5054328;28;1902;-59
2023/06/30 10:12:27;;;;;;;;;;;;;;;25.66;51.76;95169.66;5054275;28;957;-59
2023/06/30 10:14:54;;;;;;;;;;;;;;;25.77;54.73;95165.97;5053839;28;1259;-59
2023/06/30 10:17:20;;;;;;;;;;;;;;;25.81;53.76;95158.06;5053958;28;1041;-59
2023/06/30 10:19:46;;;;;;;;;;;;;;;25.64;49.88;95158.16;5054255;28;1020;-59
2023/06/30 10:22:12;;;;;;;;;;;;;;;25.74;55.43;95147.31;5054170;28;966;-59
2023/06/30 10:24:41;;;;;;;;;;;;;;;25.86;51.85;95150.75;5054136;28;973;-59
2023/06/30 10:27:09;;;;;;;;;;;;;;;25.74;54.62;95133.63;5053961;28;981;-59
2023/06/30 10:29:35;;;;;;;;;;;;;;;25.89;54.33;95136.50;5053192;28;1992;-59
2023/06/30 10:32:01;;;;;;;;;;;;;;;26.07;52.40;95138.13;5054018;28;1044;-59
2023/06/30 10:34:28;;;;;;;;;;;;;;;26.09;54.68;95140.59;5053866;28;1009;-59
2023/06/30 10:36:54;;;;;;;;;;;;;;;26.07;51.46;95135.38;5053872;28;996;-60
2023/06/30 10:39:20;;;;;;;;;;;;;;;26.12;53.82;95120.88;5048468;28;2606;-61
2023/06/30 10:41:49;;;;;;;;;;;;;;;26.24;52.44;95124.31;5033785;28;1177;-62
2023/06/30 10:44:18;;;;;;;;;;;;;;;26.34;55.72;95126.28;5033774;28;973;-62
2023/06/30 10:46:49;;;;;;;;;;;;;;;26.29;50.85;95131.72;5033797;28;981;-62
2023/06/30 10:49:17;;;;;;;;;;;;;;;26.30;54.13;95112.28;5033534;28;1930;-62
2023/06/30 10:51:49;;;;;;;;;;;;;;;26.41;53.29;95115.94;5033506;28;1041;-62
2023/06/30 10:54:23;;;;;;;;;;;;;;;26.50;52.28;95121.75;5033966;28;977;-61
2023/06/30 10:56:50;;;;;;;;;;;;;;;26.58;53.96;95114.97;5033762;28;1016;-61
2023/06/30 10:59:21;;;;;;;;;;;;;;;26.62;52.13;95121.63;5040343;28;2636;-61
2023/06/30 11:02:05;;;;;;;;;;;;;;;26.64;53.73;95113.97;5033747;28;965;-61
2023/06/30 11:04:38;;;;;;;;;;;;;;;26.59;52.90;95117.47;5033432;28;1029;-61
2023/06/30 11:07:06;;;;;;;;;;;;;;;26.46;51.10;95110.53;5036947;28;2597;-61
2023/06/30 11:09:47;;;;;;;;;;;;;;;26.37;53.64;95103.88;5036599;28;2987;-62
2023/06/30 11:12:19;;;;;;;;;;;;;;;26.43;52.71;95099.25;5033104;28;1049;-61
2023/06/30 11:14:58;;;;;;;;;;;;;;;26.55;51.17;95097.13;5033487;28;1040;-61
2023/06/30 11:17:25;;;;;;;;;;;;;;;26.71;50.01;95091.78;5031907;28;1110;-62
2023/06/30 11:20:10;;;;;;;;;;;;;;;26.67;50.22;95081.34;5033353;28;1048;-61
2023/06/30 11:22:37;;;;;;;;;;;;;;;26.65;49.56;95075.31;5033310;28;1068;-61
2023/06/30 11:25:08;;;;;;;;;;;;;;;26.68;50.39;95079.44;5065401;28;988;-61
2023/06/30 11:27:35;;;;;;;;;;;;;;;26.64;52.12;95068.16;5033549;28;1527;-61
2023/06/30 11:30:01;;;;;;;;;;;;;;;26.63;51.57;95066.50;5052765;28;1981;-61
2023/06/30 11:32:28;;;;;;;;;;;;;;;26.70;52.39;95062.72;5053007;28;1024;-61
2023/06/30 11:34:56;;;;;;;;;;;;;;;26.69;48.97;95056.41;5052973;28;1033;-61
2023/06/30 11:37:22;;;;;;;;;;;;;;;26.67;47.83;95058.56;5053079;28;989;-61
2023/06/30 11:39:54;;;;;;;;;;;;;;;26.66;50.11;95054.19;5051734;28;1042;-61
2023/06/30 11:42:21;;;;;;;;;;;;;;;26.74;48.18;95055.63;5053475;28;2545;-61
2023/06/30 11:44:50;;;;;;;;;;;;;;;26.92;51.16;95044.22;5037279;28;965;-62
2023/06/30 11:47:17;;;;;;;;;;;;;;;26.95;48.67;95046.41;5037001;28;1016;-62
2023/06/30 11:49:44;;;;;;;;;;;;;;;26.77;46.87;95050.44;5037052;28;1991;-61
2023/06/30 11:52:10;;;;;;;;;;;;;;;26.68;48.24;95039.13;5036976;28;1886;-61
2023/06/30 11:54:37;;;;;;;;;;;;;;;26.54;47.05;95042.56;5037018;28;965;-61
2023/06/30 11:57:03;;;;;;;;;;;;;;;26.62;50.50;95033.88;5036733;28;1037;-61
2023/06/30 11:59:30;;;;;;;;;;;;;;;26.51;47.57;95029.41;5036945;28;1021;-61
2023/06/30 12:01:56;;;;;;;;;;;;;;;26.67;47.34;95031.16;5036926;28;2400;-60
2023/06/30 12:04:26;;;;;;;;;;;;;;;26.77;42.27;95041.34;5046042;28;2900;-61
2023/06/30 12:06:54;;;;;;;;;;;;;;;26.76;45.63;95028.75;5056723;28;976;-60
2023/06/30 12:09:22;;;;;;;;;;;;;;;26.72;40.06;95044.91;5056612;28;1910;-60
2023/06/30 12:11:48;;;;;;;;;;;;;;;26.80;44.09;95027.13;5056772;28;1043;-60
2023/06/30 12:14:15;;;;;;;;;;;;;;;26.91;41.09;95031.56;5056292;28;1050;-60
2023/06/30 12:16:41;;;;;;;;;;;;;;;26.96;43.60;95026.13;5056664;28;1107;-60
2023/06/30 12:19:08;;;;;;;;;;;;;;;27.01;45.27;95022.56;5040931;28;2674;-61
2023/06/30 12:21:35;;;;;;;;;;;;;;;27.01;42.41;95030.78;5036435;28;1015;-63
2023/06/30 12:24:04;;;;;;;;;;;;;;;27.06;45.47;95028.88;5036549;28;1029;-62
2023/06/30 12:26:30;;;;;;;;;;;;;;;27.12;42.67;95028.91;5036207;28;1064;-62
2023/06/30 12:29:03;;;;;;;;;;;;;;;27.20;42.45;95036.63;5047997;28;1319;-62
2023/06/30 12:31:32;;;;;;;;;;;;;;;27.07;42.03;95027.81;5055809;28;1964;-62
2023/06/30 12:45:57;;;;;;;;;;;;;;;27.26;42.52;95011.72;5131535;27;1336;-52
2023/06/30 12:48:24;;;;;;;;;;;;;;;27.25;44.46;94996.34;5131143;27;1051;-52
2023/06/30 12:50:50;;;;;;;;;;;;;;;27.19;41.55;95010.28;5131383;27;1326;-52
2023/06/30 12:53:16;;;;;;;;;;;;;;;27.23;41.18;95005.91;5131315;27;1992;-52
2023/06/30 12:55:42;;;;;;;;;;;;;;;27.35;43.91;95003.78;5131435;27;1046;-52
2023/06/30 12:58:08;;;;;;;;;;;;;;;27.32;43.02;95003.47;5130335;27;3062;-52
2023/06/30 13:00:34;;;;;;;;;;;;;;;27.37;43.07;95000.75;5130110;27;2834;-52
2023/06/30 13:03:00;;;;;;;;;;;;;;;27.49;43.85;94997.75;5131140;27;1051;-52
2023/06/30 13:05:26;;;;;;;;;;;;;;;27.43;40.41;95011.50;5130841;27;1048;-52
2023/06/30 13:07:52;;;;;;;;;;;;;;;27.35;37.72;95008.44;5131111;27;1875;-52
2023/06/30 13:10:18;;;;;;;;;;;;;;;27.32;39.71;94998.84;5130794;27;1095;-52
2023/06/30 13:12:45;;;;;;;;;;;;;;;27.26;40.29;94991.66;5131184;27;1031;-52
2023/06/30 13:15:11;;;;;;;;;;;;;;;27.34;41.65;94988.41;5130657;27;1910;-52
2023/06/30 13:17:37;;;;;;;;;;;;;;;27.34;38.68;94991.16;5130860;27;1026;-51
2023/06/30 13:20:07;;;;;;;;;;;;;;;27.37;39.70;94985.09;5129577;28;1011;-52
2023/06/30 13:22:34;;;;;;;;;;;;;;;27.44;41.15;94984.84;5130871;27;976;-51